Time;durP1;ratioP1;P1;durP2;ratioP2;P2;SDS_P1;SDS_P2;PMS_P1;PMS_P2;Temp;Humidity;BMP_temperature;BMP_pressure;BME280_temperature;BME280_humidity;BME280_pressure;Samples;Min_cycle;Max_cycle;Signal;HPM_P1;HPM_P2
2022/01/14 00:00:58;;;;;;;5.30;2.95;;;;;;;-145.06;0.00;60892.56;4849292;28;20052;-87
2022/01/14 00:03:37;;;;;;;5.23;3.30;;;;;;;-145.06;0.00;60892.56;4847376;28;20877;-85
2022/01/14 00:06:16;;;;;;;5.73;3.20;;;;;;;-145.06;0.00;60892.56;4848199;28;20036;-87
2022/01/14 00:09:02;;;;;;;4.45;2.78;;;;;;;-145.06;0.00;60892.56;4847602;28;20049;-87
2022/01/14 00:11:50;;;;;;;3.88;2.22;;;;;;;-145.06;0.00;60892.56;4848338;28;20022;-87
2022/01/14 00:17:16;;;;;;;3.65;2.42;;;;;;;-145.06;0.00;60892.56;4848174;28;20380;-86
2022/01/14 00:19:55;;;;;;;3.92;2.30;;;;;;;-145.06;0.00;60892.56;4844440;28;20042;-87
2022/01/14 00:22:35;;;;;;;3.95;2.33;;;;;;;-145.06;0.00;60892.56;4848830;28;20511;-86
2022/01/14 00:34:08;;;;;;;3.40;2.13;;;;;;;-145.06;0.00;60892.56;4847210;28;20022;-87
2022/01/14 00:36:47;;;;;;;3.67;2.30;;;;;;;-145.06;0.00;60892.56;4851054;28;20495;-86
2022/01/14 00:39:26;;;;;;;3.20;2.20;;;;;;;5.49;0.00;60892.56;4852139;28;20041;-87
2022/01/14 00:42:06;;;;;;;3.97;2.40;;;;;;;5.49;0.00;60892.56;4850999;28;20679;-87
2022/01/14 00:44:45;;;;;;;3.75;1.83;;;;;;;-145.06;0.00;60892.56;4851264;28;20029;-86
2022/01/14 00:47:24;;;;;;;2.47;1.73;;;;;;;21.08;0.00;60892.56;4879686;28;20033;-86
2022/01/14 00:50:09;;;;;;;4.07;2.20;;;;;;;-145.06;0.00;60892.56;4864259;28;20037;-87
2022/01/14 00:52:49;;;;;;;4.28;2.42;;;;;;;10.68;0.00;60892.56;4851726;28;20260;-86
2022/01/14 00:55:28;;;;;;;4.45;2.15;;;;;;;-145.06;0.00;60892.56;4850386;28;20033;-86
2022/01/14 01:01:06;;;;;;;3.15;2.15;;;;;;;-145.06;0.00;60892.56;4851818;28;20037;-87
2022/01/14 01:03:45;;;;;;;3.57;2.33;;;;;;;-145.06;0.00;60892.56;4851614;28;20076;-86
2022/01/14 01:06:25;;;;;;;3.67;2.20;;;;;;;-145.06;0.00;60892.56;4851609;28;20033;-87
2022/01/14 01:09:10;;;;;;;4.50;2.30;;;;;;;-145.06;0.00;60892.56;4851186;28;20037;-86
2022/01/14 01:12:05;;;;;;;3.22;2.28;;;;;;;-145.06;0.00;60892.56;4852512;28;20057;-86
2022/01/14 01:15:02;;;;;;;3.65;2.25;;;;;;;21.08;0.00;60892.56;4849260;28;20030;-86
2022/01/14 01:17:41;;;;;;;3.15;2.25;;;;;;;187.52;0.00;60892.56;4852753;28;20033;-88
2022/01/14 01:20:21;;;;;;;3.85;2.30;;;;;;;-145.06;0.00;60892.56;4849794;28;20033;-86
2022/01/14 01:23:00;;;;;;;4.53;2.40;;;;;;;-145.06;0.00;60892.56;4850064;28;20049;-86
2022/01/14 01:25:44;;;;;;;3.10;2.00;;;;;;;-145.06;0.00;60892.56;4849480;28;20034;-86
2022/01/14 01:28:25;;;;;;;3.90;2.30;;;;;;;-145.06;0.00;60892.56;4852011;28;20053;-86
2022/01/14 01:31:34;;;;;;;3.35;2.17;;;;;;;187.52;0.00;60892.56;4850648;28;20030;-86
2022/01/14 01:34:06;;;;;;;2.95;2.10;;;;;;;-145.06;0.00;60892.56;4851414;28;20029;-86
2022/01/14 01:36:48;;;;;;;3.17;2.00;;;;;;;-145.06;0.00;60892.56;4851411;28;20368;-85
2022/01/14 01:39:30;;;;;;;2.08;1.60;;;;;;;1.67;0.00;60892.56;4852046;28;20037;-86
2022/01/14 01:42:10;;;;;;;3.13;2.28;;;;;;;-145.06;0.00;60892.56;4850700;28;20037;-87
2022/01/14 01:44:50;;;;;;;4.43;2.35;;;;;;;21.08;0.00;60892.56;4849560;28;20116;-87
2022/01/14 01:47:29;;;;;;;2.42;1.80;;;;;;;-145.06;0.00;60892.56;4852357;28;20041;-86
2022/01/14 01:50:13;;;;;;;3.10;2.13;;;;;;;-145.06;0.00;60892.56;4850449;28;20041;-87
2022/01/14 01:52:54;;;;;;;3.15;2.17;;;;;;;-145.06;0.00;60892.56;4850225;28;20033;-86
2022/01/14 01:55:33;;;;;;;4.65;2.00;;;;;;;1.57;0.00;60892.56;4849962;28;20034;-86
2022/01/14 01:58:12;;;;;;;3.93;1.97;;;;;;;-145.06;0.00;60892.56;4851544;28;20703;-87
2022/01/14 02:00:51;;;;;;;3.13;2.20;;;;;;;-145.06;0.00;60892.56;4850511;28;20037;-85
2022/01/14 02:03:31;;;;;;;4.45;2.13;;;;;;;-145.06;0.00;60892.56;4847635;28;20443;-87
2022/01/14 02:06:10;;;;;;;2.80;1.77;;;;;;;-145.06;0.00;60892.56;4849323;28;20112;-87
2022/01/14 02:08:50;;;;;;;4.17;2.27;;;;;;;-145.06;0.00;60892.56;4852930;28;20037;-85
2022/01/14 02:11:29;;;;;;;3.35;2.28;;;;;;;1.57;0.00;60892.56;4851245;28;20256;-86
2022/01/14 02:14:28;;;;;;;3.25;1.92;;;;;;;-145.06;0.00;60892.56;4851370;28;20539;-87
2022/01/14 02:23:05;;;;;;;4.55;1.58;;;;;;;10.68;0.00;60892.56;4852071;28;20045;-86
2022/01/14 02:25:45;;;;;;;2.58;1.73;;;;;;;21.08;0.00;60892.56;4850280;28;20033;-87
2022/01/14 02:28:25;;;;;;;;;;;;;;;-145.06;0.00;60892.56;4864773;28;20513;-86
2022/01/14 02:31:04;;;;;;;1.92;1.20;;;;;;;-145.06;0.00;60892.56;4847737;28;19917;-85
2022/01/14 02:33:44;;;;;;;1.83;1.30;;;;;;;-145.06;0.00;60892.56;4847386;28;20045;-87
2022/01/14 02:36:24;;;;;;;1.83;1.33;;;;;;;-145.06;0.00;60892.56;4847908;28;20603;-86
2022/01/14 02:39:04;;;;;;;4.22;1.20;;;;;;;-145.06;0.00;60892.56;4849922;28;20440;-87
2022/01/14 02:41:45;;;;;;;3.33;1.50;;;;;;;-145.06;0.00;60892.56;4848770;28;20112;-87
2022/01/14 02:44:27;;;;;;;1.88;1.45;;;;;;;-145.06;0.00;60892.56;4849912;28;20029;-87
2022/01/14 02:47:07;;;;;;;2.35;1.65;;;;;;;-145.06;0.00;60892.56;4849316;28;20987;-86
2022/01/14 02:49:45;;;;;;;2.30;1.52;;;;;;;-145.06;0.00;60892.56;4849418;28;20857;-87
2022/01/14 02:52:42;;;;;;;2.20;1.33;;;;;;;-145.06;0.00;60892.56;4845256;28;20033;-86
2022/01/14 02:55:28;;;;;;;2.60;1.65;;;;;;;-145.06;0.00;60892.56;4851025;28;20037;-86
2022/01/14 02:58:07;;;;;;;2.20;1.30;;;;;;;-145.06;0.00;60892.56;4853118;28;20045;-86
2022/01/14 03:00:47;;;;;;;3.63;2.10;;;;;;;-145.06;0.00;60892.56;4858654;28;20034;-85
2022/01/14 03:03:30;;;;;;;2.33;1.55;;;;;;;-145.06;0.00;60892.56;4870932;28;20041;-86
2022/01/14 03:06:10;;;;;;;2.25;1.33;;;;;;;5.49;0.00;60892.56;4852240;28;20124;-86
2022/01/14 03:08:49;;;;;;;3.25;1.90;;;;;;;-145.06;0.00;60892.56;4849547;28;20041;-86
2022/01/14 03:11:36;;;;;;;2.10;1.67;;;;;;;-145.06;0.00;60892.56;4848310;28;20029;-87
2022/01/14 03:14:24;;;;;;;2.53;1.63;;;;;;;-145.06;0.00;60892.56;4850513;28;20033;-86
2022/01/14 03:17:03;;;;;;;1.90;1.33;;;;;;;-145.06;0.00;60892.56;4847517;28;20132;-86
2022/01/14 03:19:45;;;;;;;2.35;1.67;;;;;;;-145.06;0.00;60892.56;4849050;28;20495;-86
2022/01/14 03:22:52;;;;;;;3.30;1.70;;;;;;;-145.06;0.00;60892.56;4849505;28;20034;-86
2022/01/14 03:25:47;;;;;;;3.75;1.90;;;;;;;-145.06;0.00;60892.56;4847559;28;20037;-87
2022/01/14 03:28:26;;;;;;;4.30;2.00;;;;;;;-145.06;0.00;60892.56;4848776;28;20029;-87
2022/01/14 03:31:05;;;;;;;4.15;2.03;;;;;;;-145.06;0.00;60892.56;4848681;28;20033;-85
2022/01/14 03:33:44;;;;;;;2.13;1.57;;;;;;;-145.06;0.00;60892.56;4848463;28;20376;-87
2022/01/14 03:36:23;;;;;;;3.17;1.83;;;;;;;-145.06;0.00;60892.56;4849989;28;20479;-87
2022/01/14 03:39:03;;;;;;;3.10;1.95;;;;;;;-145.06;0.00;60892.56;4846388;28;20033;-86
2022/01/14 03:41:42;;;;;;;3.90;2.20;;;;;;;-145.06;0.00;60892.56;4847911;28;20033;-87
2022/01/14 03:44:21;;;;;;;3.92;2.15;;;;;;;-145.06;0.00;60892.56;4848628;28;20037;-86
2022/01/14 03:47:00;;;;;;;6.10;2.25;;;;;;;-145.06;0.00;60892.56;4848804;28;20033;-87
2022/01/14 03:49:39;;;;;;;4.50;2.47;;;;;;;-145.06;0.00;60892.56;4846201;28;20061;-86
2022/01/14 03:52:18;;;;;;;7.18;3.17;;;;;;;-145.06;0.00;60892.56;4848462;28;20025;-87
2022/01/14 03:54:57;;;;;;;9.23;2.85;;;;;;;-145.06;0.00;60892.56;4848423;28;20673;-86
2022/01/14 03:57:37;;;;;;;10.20;3.33;;;;;;;-145.06;0.00;60892.56;4848698;28;20041;-86
2022/01/14 04:00:17;;;;;;;8.50;3.47;;;;;;;-145.06;0.00;60892.56;4847625;28;20037;-86
2022/01/14 04:02:56;;;;;;;12.52;3.60;;;;;;;-145.06;0.00;60892.56;4861194;28;20045;-87
2022/01/14 04:05:35;;;;;;;10.70;3.78;;;;;;;187.52;0.00;60892.56;4848020;28;20073;-87
2022/01/14 04:08:14;;;;;;;18.48;5.55;;;;;;;187.52;0.00;60892.56;4850586;28;20045;-87
2022/01/14 04:10:56;;;;;;;17.00;5.22;;;;;;;5.49;0.00;60892.56;4849493;28;20034;-87
2022/01/14 04:13:49;;;;;;;20.63;6.07;;;;;;;21.08;0.00;60892.56;4852101;28;20069;-87
2022/01/14 04:16:28;;;;;;;21.20;6.28;;;;;;;2.89;0.00;60892.56;4851768;28;20025;-86
2022/01/14 04:19:07;;;;;;;25.80;7.30;;;;;;;-145.06;0.00;60892.56;4851824;28;20108;-86
2022/01/14 04:21:46;;;;;;;20.88;7.13;;;;;;;-145.06;0.00;60892.56;4852641;28;20045;-86
2022/01/14 04:24:25;;;;;;;30.08;7.97;;;;;;;-145.06;0.00;60892.56;4851272;28;20065;-86
2022/01/14 04:27:04;;;;;;;26.30;7.60;;;;;;;-145.06;0.00;60892.56;4853151;28;20128;-88
2022/01/14 04:29:44;;;;;;;22.35;7.00;;;;;;;-145.06;0.00;60892.56;4851998;28;20033;-87
2022/01/14 04:32:22;;;;;;;17.90;5.87;;;;;;;-145.06;0.00;60892.56;4849512;28;20029;-87
2022/01/14 04:35:02;;;;;;;15.40;5.22;;;;;;;-145.06;0.00;60892.56;4851015;28;20037;-85
2022/01/14 04:37:41;;;;;;;12.82;4.75;;;;;;;10.68;0.00;60892.56;4851487;28;20033;-87
2022/01/14 04:40:21;;;;;;;12.60;5.07;;;;;;;-145.06;0.00;60892.56;4849258;28;20518;-87
2022/01/14 04:43:00;;;;;;;11.77;4.50;;;;;;;1.59;0.00;60892.56;4849929;28;20431;-86
2022/01/14 04:45:43;;;;;;;11.93;5.20;;;;;;;21.08;0.00;60892.56;4851558;28;20364;-87
2022/01/14 04:48:22;;;;;;;9.13;4.15;;;;;;;1.54;0.00;60892.56;4864813;28;20033;-86
2022/01/14 04:51:06;;;;;;;9.90;4.70;;;;;;;2.89;0.00;60892.56;4852070;28;20368;-87
2022/01/14 04:53:46;;;;;;;10.10;4.50;;;;;;;5.49;0.00;60892.56;4850244;28;20555;-86
2022/01/14 04:56:25;;;;;;;8.02;3.25;;;;;;;1.52;0.00;60892.56;4852135;28;20033;-86
2022/01/14 04:59:04;;;;;;;9.57;4.28;;;;;;;5.49;0.00;60892.56;4852241;28;20041;-87
2022/01/14 05:01:43;;;;;;;7.50;3.83;;;;;;;-145.06;0.00;60892.56;4850549;28;20026;-87
2022/01/14 05:04:22;;;;;;;7.50;3.80;;;;;;;-145.06;0.00;60892.56;4850737;28;20037;-87
2022/01/14 05:07:03;;;;;;;5.90;3.50;;;;;;;-145.06;0.00;60892.56;4848732;28;20112;-86
2022/01/14 05:09:46;;;;;;;6.85;2.78;;;;;;;-145.06;0.00;60892.56;4850866;28;20034;-87
2022/01/14 05:12:25;;;;;;;4.05;2.53;;;;;;;10.68;0.00;60892.56;4849718;28;20033;-86
2022/01/14 05:15:05;;;;;;;5.72;2.38;;;;;;;-145.06;0.00;60892.56;4848603;28;20120;-87
2022/01/14 05:17:45;;;;;;;5.60;2.72;;;;;;;10.68;0.00;60892.56;4847102;28;20041;-86
2022/01/14 05:20:24;;;;;;;4.75;2.70;;;;;;;1.44;0.00;60892.56;4848282;28;20061;-87
2022/01/14 05:23:03;;;;;;;4.32;2.53;;;;;;;1.42;0.00;60892.56;4845757;28;20038;-86
2022/01/14 05:25:42;;;;;;;3.63;2.42;;;;;;;-145.06;0.00;60892.56;4861742;28;20041;-88
2022/01/14 05:28:22;;;;;;;4.10;2.27;;;;;;;-145.06;0.00;60892.56;4852014;28;20048;-88
2022/01/14 05:31:01;;;;;;;3.45;2.42;;;;;;;-145.06;0.00;60892.56;4840985;28;20397;-87
2022/01/14 05:33:42;;;;;;;3.25;2.30;;;;;;;-145.06;0.00;60892.56;4865294;28;20045;-87
2022/01/14 05:36:21;;;;;;;2.97;1.77;;;;;;;10.68;0.00;60892.56;4837800;28;20045;-87
2022/01/14 05:39:00;;;;;;;4.45;2.13;;;;;;;1.59;0.00;60892.56;4822623;28;20785;-86
2022/01/14 05:41:39;;;;;;;3.03;2.25;;;;;;;-145.06;0.00;60892.56;4834873;28;20149;-88
2022/01/14 05:44:19;;;;;;;4.10;2.35;;;;;;;1.59;0.00;60892.56;4846885;28;20639;-87
2022/01/14 05:46:59;;;;;;;3.28;2.22;;;;;;;-145.06;0.00;60892.56;4848756;28;20113;-86
2022/01/14 05:49:38;;;;;;;4.78;2.13;;;;;;;187.52;0.00;60892.56;4847734;28;20466;-86
2022/01/14 05:52:17;;;;;;;3.90;2.50;;;;;;;-145.06;0.00;60892.56;4851693;28;20037;-87
2022/01/14 05:54:57;;;;;;;3.58;2.38;;;;;;;-145.06;0.00;60892.56;4848462;28;20037;-87
2022/01/14 05:57:38;;;;;;;2.95;2.10;;;;;;;-145.06;0.00;60892.56;4849963;28;20033;-87
2022/01/14 06:00:19;;;;;;;5.03;2.13;;;;;;;-145.06;0.00;60892.56;4848125;28;20483;-87
2022/01/14 06:02:58;;;;;;;3.33;2.30;;;;;;;-145.06;0.00;60892.56;4847619;28;20049;-87
2022/01/14 06:05:37;;;;;;;4.60;2.30;;;;;;;-145.06;0.00;60892.56;4847654;28;21073;-88
2022/01/14 06:08:16;;;;;;;5.47;2.13;;;;;;;-145.06;0.00;60892.56;4848827;28;20702;-87
2022/01/14 06:10:55;;;;;;;2.83;1.98;;;;;;;-145.06;0.00;60892.56;4849373;28;20037;-87
2022/01/14 06:13:34;;;;;;;3.67;2.38;;;;;;;-145.06;0.00;60892.56;4849060;28;20030;-87
2022/01/14 06:16:14;;;;;;;3.60;2.50;;;;;;;-145.06;0.00;60892.56;4852993;28;20033;-86
2022/01/14 06:18:53;;;;;;;;;;;;;;;-145.06;0.00;60892.56;4848139;28;20280;-87
2022/01/14 06:21:32;;;;;;;3.97;2.38;;;;;;;187.52;0.00;60892.56;4881751;28;20622;-86
2022/01/14 06:24:11;;;;;;;3.80;2.20;;;;;;;-145.06;0.00;60892.56;4853524;28;20124;-87
2022/01/14 06:26:50;;;;;;;3.47;2.47;;;;;;;187.52;0.00;60892.56;4851979;28;20276;-86
2022/01/14 06:29:29;;;;;;;3.73;2.27;;;;;;;-145.06;0.00;60892.56;4856897;28;20615;-86
2022/01/14 06:32:08;;;;;;;4.13;2.17;;;;;;;-145.06;0.00;60892.56;4866771;28;20288;-89
2022/01/14 06:34:47;;;;;;;3.20;2.08;;;;;;;-145.06;0.00;60892.56;4853198;28;20116;-87
2022/01/14 06:37:26;;;;;;;5.05;2.28;;;;;;;5.49;0.00;60892.56;4849051;28;20029;-87
2022/01/14 06:40:07;;;;;;;3.10;2.33;;;;;;;-145.06;0.00;60892.56;4849973;28;20041;-86
2022/01/14 06:42:46;;;;;;;3.00;2.17;;;;;;;-145.06;0.00;60892.56;4851141;28;20029;-88
2022/01/14 06:45:25;;;;;;;3.60;1.83;;;;;;;-145.06;0.00;60892.56;4852139;28;20033;-86
2022/01/14 06:48:04;;;;;;;3.13;2.35;;;;;;;-145.06;0.00;60892.56;4852115;28;20112;-86
2022/01/14 06:50:43;;;;;;;3.93;2.30;;;;;;;-145.06;0.00;60892.56;4851928;28;20604;-87
2022/01/14 06:53:22;;;;;;;3.20;2.10;;;;;;;-145.06;0.00;60892.56;4847758;28;20272;-87
2022/01/14 06:56:01;;;;;;;3.20;2.03;;;;;;;21.08;0.00;60892.56;4851063;28;20475;-87
2022/01/14 06:58:41;;;;;;;2.97;2.05;;;;;;;21.08;0.00;60892.56;4853433;28;20033;-86
2022/01/14 07:01:20;;;;;;;3.08;1.92;;;;;;;-145.06;0.00;60892.56;4848373;28;20376;-87
2022/01/14 07:03:59;;;;;;;2.92;2.17;;;;;;;-145.06;0.00;60892.56;4858885;28;20045;-87
2022/01/14 07:06:38;;;;;;;2.88;2.10;;;;;;;-145.06;0.00;60892.56;4848663;28;20042;-85
2022/01/14 07:09:18;;;;;;;4.10;2.20;;;;;;;-145.06;0.00;60892.56;4854078;28;20029;-87
2022/01/14 07:11:59;;;;;;;3.13;2.10;;;;;;;-145.06;0.00;60892.56;4844186;28;20045;-86
2022/01/14 07:14:38;;;;;;;2.83;2.10;;;;;;;-145.06;0.00;60892.56;4854257;28;20033;-88
2022/01/14 07:17:17;;;;;;;2.47;1.80;;;;;;;-145.06;0.00;60892.56;4848359;28;20495;-86
2022/01/14 07:20:00;;;;;;;3.03;1.90;;;;;;;-145.06;0.00;60892.56;4847852;28;20037;-87
2022/01/14 07:22:41;;;;;;;3.67;2.05;;;;;;;-145.06;0.00;60892.56;4849788;28;20712;-86
2022/01/14 07:25:21;;;;;;;4.05;2.40;;;;;;;-145.06;0.00;60892.56;4853023;28;20029;-87
2022/01/14 07:28:00;;;;;;;3.28;2.15;;;;;;;-145.06;0.00;60892.56;4855353;28;20037;-87
2022/01/14 07:30:39;;;;;;;3.33;2.17;;;;;;;-145.06;0.00;60892.56;4855591;28;20041;-87
2022/01/14 07:33:18;;;;;;;3.73;2.50;;;;;;;-145.06;0.00;60892.56;4835722;28;20022;-86
2022/01/14 07:35:56;;;;;;;3.58;2.20;;;;;;;187.52;0.00;60892.56;4851119;28;20120;-86
2022/01/14 07:38:35;;;;;;;3.17;2.03;;;;;;;-145.06;0.00;60892.56;4850331;28;20029;-86
2022/01/14 07:41:14;;;;;;;4.20;2.30;;;;;;;187.52;0.00;60892.56;4856301;28;20371;-87
2022/01/14 07:43:53;;;;;;;3.22;1.95;;;;;;;-145.06;0.00;60892.56;4858150;28;20120;-87
2022/01/14 07:46:33;;;;;;;3.30;2.17;;;;;;;-145.06;0.00;60892.56;4860773;28;20041;-86
2022/01/14 07:49:11;;;;;;;4.18;2.03;;;;;;;-145.06;0.00;60892.56;4854740;28;20030;-88
2022/01/14 07:51:51;;;;;;;5.35;2.10;;;;;;;-145.06;0.00;60892.56;4854607;28;20022;-86
2022/01/14 07:54:30;;;;;;;2.80;2.20;;;;;;;-145.06;0.00;60892.56;4853562;28;20483;-87
2022/01/14 07:57:09;;;;;;;3.17;2.00;;;;;;;-145.06;0.00;60892.56;4852982;28;20049;-87
2022/01/14 07:59:48;;;;;;;3.67;2.28;;;;;;;-145.06;0.00;60892.56;4848884;28;20037;-86
2022/01/14 08:02:27;;;;;;;5.57;2.17;;;;;;;1.23;0.00;60892.56;4852352;28;20033;-87
2022/01/14 08:05:07;;;;;;;3.85;2.20;;;;;;;-145.06;0.00;60892.56;4866293;28;20495;-87
2022/01/14 08:07:47;;;;;;;3.83;2.20;;;;;;;-145.06;0.00;60892.56;4854787;28;20116;-88
2022/01/14 08:10:26;;;;;;;2.58;1.98;;;;;;;21.08;0.00;60892.56;4855462;28;20033;-88
2022/01/14 08:13:05;;;;;;;3.60;2.00;;;;;;;1.27;0.00;60892.56;4855138;28;20364;-87
2022/01/14 08:15:44;;;;;;;3.20;2.10;;;;;;;-145.06;0.00;60892.56;4856749;28;20032;-88
2022/01/14 08:18:23;;;;;;;2.38;1.70;;;;;;;-145.06;0.00;60892.56;4836100;28;20366;-87
2022/01/14 08:21:05;;;;;;;6.33;2.60;;;;;;;-145.06;0.00;60892.56;4852041;28;20037;-87
2022/01/14 08:23:44;;;;;;;3.13;1.85;;;;;;;-145.06;0.00;60892.56;4854899;28;20376;-87
2022/01/14 08:26:23;;;;;;;2.73;1.80;;;;;;;-145.06;0.00;60892.56;4852574;28;20515;-88
2022/01/14 08:29:02;;;;;;;2.93;2.10;;;;;;;-145.06;0.00;60892.56;4854776;28;20272;-86
2022/01/14 08:31:41;;;;;;;2.72;1.98;;;;;;;10.68;0.00;60892.56;4858572;28;20026;-87
2022/01/14 08:34:21;;;;;;;2.47;2.08;;;;;;;1.24;0.00;60892.56;4841797;28;20484;-88
2022/01/14 08:37:00;;;;;;;3.38;2.33;;;;;;;187.52;0.00;60892.56;4854099;28;20045;-86
2022/01/14 08:39:39;;;;;;;3.40;2.20;;;;;;;1.28;0.00;60892.56;4851786;28;20045;-87
2022/01/14 08:42:18;;;;;;;4.03;2.33;;;;;;;-145.06;0.00;60892.56;4866943;28;20159;-87
2022/01/14 08:44:57;;;;;;;4.47;2.33;;;;;;;2.89;0.00;60892.56;4848739;28;20042;-86
2022/01/14 08:47:36;;;;;;;4.57;2.30;;;;;;;10.68;0.00;60892.56;4868863;28;20037;-87
2022/01/14 08:50:15;;;;;;;2.35;1.92;;;;;;;-145.06;0.00;60892.56;4853597;28;20041;-87
2022/01/14 08:52:54;;;;;;;2.77;1.83;;;;;;;5.49;0.00;60892.56;4854243;28;20034;-87
2022/01/14 08:55:35;;;;;;;3.80;2.28;;;;;;;1.35;0.00;60892.56;4867688;28;20119;-87
2022/01/14 08:58:14;;;;;;;2.67;1.92;;;;;;;-145.06;0.00;60892.56;4857066;28;20041;-87
2022/01/14 09:00:53;;;;;;;2.85;2.35;;;;;;;-145.06;0.00;60892.56;4858809;28;20029;-88
2022/01/14 09:03:32;;;;;;;3.58;2.03;;;;;;;-145.06;0.00;60892.56;4855339;28;20037;-87
2022/01/14 09:06:11;;;;;;;3.72;2.22;;;;;;;-145.06;0.00;60892.56;4856875;28;20030;-87
2022/01/14 09:08:50;;;;;;;3.25;2.30;;;;;;;-145.06;0.00;60892.56;4849720;28;20033;-87
2022/01/14 09:11:29;;;;;;;4.70;2.53;;;;;;;1.56;0.00;60892.56;4856097;28;20111;-86
2022/01/14 09:14:08;;;;;;;4.30;2.67;;;;;;;-145.06;0.00;60892.56;4855295;28;20037;-86
2022/01/14 09:16:48;;;;;;;3.75;2.10;;;;;;;-145.06;0.00;60892.56;4856346;28;20388;-86
2022/01/14 09:19:26;;;;;;;2.53;2.15;;;;;;;2.24;0.00;60892.56;4857600;28;20068;-88
2022/01/14 09:22:07;;;;;;;3.20;2.05;;;;;;;-145.06;0.00;60892.56;4855321;28;20380;-86
2022/01/14 09:24:47;;;;;;;4.28;2.67;;;;;;;-145.06;0.00;60892.56;4851496;28;20727;-86
2022/01/14 09:27:29;;;;;;;3.40;2.22;;;;;;;-145.06;0.00;60892.56;4870888;28;20495;-85
2022/01/14 09:30:09;;;;;;;4.00;2.60;;;;;;;-145.06;0.00;60892.56;4856876;28;20029;-87
2022/01/14 09:32:49;;;;;;;;;;;;;;;-145.06;0.00;60892.56;4857101;28;20037;-88
2022/01/14 09:35:28;;;;;;;3.95;2.25;;;;;;;-145.06;0.00;60892.56;4859077;28;19995;-88
2022/01/14 09:38:07;;;;;;;4.65;2.67;;;;;;;-145.06;0.00;60892.56;4855646;28;20038;-86
2022/01/14 09:40:49;;;;;;;4.30;2.70;;;;;;;-145.06;0.00;60892.56;4858222;28;20033;-86
2022/01/14 09:43:30;;;;;;;3.50;2.25;;;;;;;-145.06;0.00;60892.56;4873906;28;20569;-87
2022/01/14 09:46:11;;;;;;;3.97;2.40;;;;;;;-145.06;0.00;60892.56;4867819;28;20479;-87
2022/01/14 09:48:50;;;;;;;3.90;2.60;;;;;;;-145.06;0.00;60892.56;4862113;28;20033;-87
2022/01/14 09:51:29;;;;;;;4.80;2.70;;;;;;;-145.06;0.00;60892.56;4866613;28;20372;-87
2022/01/14 09:54:10;;;;;;;4.68;2.42;;;;;;;-145.06;0.00;60892.56;4856475;28;20061;-87
2022/01/14 09:56:49;;;;;;;5.20;2.70;;;;;;;21.08;0.00;60892.56;4870155;28;20064;-88
2022/01/14 09:59:28;;;;;;;4.20;2.92;;;;;;;-145.06;0.00;60892.56;4856843;28;20037;-86
2022/01/14 10:02:07;;;;;;;3.97;2.20;;;;;;;10.68;0.00;60892.56;4853855;28;20116;-87
2022/01/14 10:04:46;;;;;;;3.15;2.10;;;;;;;-145.06;0.00;60892.56;4855847;28;20636;-86
2022/01/14 10:07:25;;;;;;;3.00;2.10;;;;;;;187.52;0.00;60892.56;4856350;28;20116;-87
2022/01/14 10:10:22;;;;;;;3.60;2.05;;;;;;;-145.06;0.00;60892.56;4855968;28;20045;-86
2022/01/14 10:13:26;;;;;;;2.78;1.88;;;;;;;-145.06;0.00;60892.56;4839925;28;20026;-87
2022/01/14 10:16:07;;;;;;;2.50;1.45;;;;;;;-145.06;0.00;60892.56;4857566;28;20029;-87
2022/01/14 10:18:48;;;;;;;1.70;1.23;;;;;;;-145.06;0.00;60892.56;4852568;28;20033;-86
2022/01/14 10:21:33;;;;;;;2.45;1.30;;;;;;;-145.06;0.00;60892.56;4852027;28;20017;-86
2022/01/14 10:24:12;;;;;;;1.33;1.20;;;;;;;-145.06;0.00;60892.56;4856635;28;20476;-86
2022/01/14 10:26:57;;;;;;;1.83;1.23;;;;;;;-145.06;0.00;60892.56;4855407;28;20033;-86
2022/01/14 10:29:38;;;;;;;2.05;1.00;;;;;;;-145.06;0.00;60892.56;4856034;28;20037;-86
2022/01/14 10:32:19;;;;;;;1.73;1.13;;;;;;;3.92;0.00;60892.56;4846397;28;20491;-86
2022/01/14 10:35:04;;;;;;;2.40;1.20;;;;;;;4.03;0.00;60892.56;4856150;28;20803;-85
2022/01/14 10:37:43;;;;;;;3.05;1.55;;;;;;;10.68;0.00;60892.56;4856022;28;20030;-86
2022/01/14 10:40:24;;;;;;;1.70;1.30;;;;;;;-145.06;0.00;60892.56;4847103;28;20029;-85
2022/01/14 10:43:05;;;;;;;1.98;1.38;;;;;;;-145.06;0.00;60892.56;4845243;28;20037;-86
2022/01/14 10:45:45;;;;;;;2.50;1.58;;;;;;;-145.06;0.00;60892.56;4855237;28;20037;-85
2022/01/14 10:48:33;;;;;;;3.80;1.90;;;;;;;-145.06;0.00;60892.56;4851654;28;20037;-85
2022/01/14 10:51:16;;;;;;;2.15;1.70;;;;;;;-145.06;0.00;60892.56;4865531;28;20033;-86
2022/01/14 10:53:55;;;;;;;3.55;2.13;;;;;;;-145.06;0.00;60892.56;4854575;28;20068;-86
2022/01/14 10:56:33;;;;;;;3.00;1.73;;;;;;;-145.06;0.00;60892.56;4856763;28;20037;-85
2022/01/14 10:59:12;;;;;;;4.13;2.40;;;;;;;5.06;0.00;60892.56;4857169;28;20053;-86
2022/01/14 11:01:52;;;;;;;3.72;2.28;;;;;;;-145.06;0.00;60892.56;4859801;28;20491;-86
2022/01/14 11:04:33;;;;;;;4.30;2.28;;;;;;;-145.06;0.00;60892.56;4839926;28;20033;-86
2022/01/14 11:07:21;;;;;;;3.42;2.33;;;;;;;5.30;0.00;60892.56;4854503;28;20068;-87
2022/01/14 11:10:11;;;;;;;4.47;2.10;;;;;;;-145.06;0.00;60892.56;4855200;28;20065;-86
2022/01/14 11:13:01;;;;;;;;;;;;;;;-145.06;0.00;60892.56;4857101;28;20115;-87
2022/01/14 11:15:39;;;;;;;2.43;1.90;;;;;;;-145.06;0.00;60892.56;4836716;28;19913;-86
2022/01/14 11:18:19;;;;;;;3.80;2.35;;;;;;;-145.06;0.00;60892.56;4854612;28;20037;-85
2022/01/14 11:23:57;;;;;;;4.20;2.20;;;;;;;6.63;0.00;60892.56;4855799;28;19917;-86
2022/01/14 11:26:39;;;;;;;5.80;2.80;;;;;;;-145.06;0.00;60892.56;4849833;28;20037;-88
2022/01/14 11:29:21;;;;;;;3.95;2.38;;;;;;;-145.06;0.00;60892.56;4848401;28;20116;-86
2022/01/14 11:32:03;;;;;;;3.67;2.47;;;;;;;-145.06;0.00;60892.56;4854324;28;20021;-87
2022/01/14 11:34:44;;;;;;;4.93;2.63;;;;;;;-145.06;0.00;60892.56;4852981;28;20591;-86
2022/01/14 11:37:29;;;;;;;6.28;3.45;;;;;;;-145.06;0.00;60892.56;4850492;28;20033;-87
2022/01/14 11:40:10;;;;;;;5.18;3.38;;;;;;;-145.06;0.00;60892.56;4853243;28;20056;-88
2022/01/14 11:42:58;;;;;;;6.35;4.05;;;;;;;-145.06;0.00;60892.56;4850262;28;20420;-87
2022/01/14 11:45:46;;;;;;;7.00;4.43;;;;;;;-145.06;0.00;60892.56;4854325;28;20041;-88
2022/01/14 11:48:32;;;;;;;6.05;3.72;;;;;;;-145.06;0.00;60892.56;4853646;28;20123;-88
2022/01/14 11:51:15;;;;;;;5.75;3.47;;;;;;;-145.06;0.00;60892.56;4862963;28;20487;-88
2022/01/14 11:54:04;;;;;;;5.05;3.40;;;;;;;8.24;0.00;60892.56;4851795;28;20029;-87
2022/01/14 11:56:45;;;;;;;6.30;4.38;;;;;;;-145.06;0.00;60892.56;4851242;28;20029;-87
2022/01/14 11:59:23;;;;;;;6.97;4.10;;;;;;;-145.06;0.00;60892.56;4856714;28;20100;-87
2022/01/14 12:02:30;;;;;;;8.13;4.80;;;;;;;-145.06;0.00;60892.56;4853060;28;20033;-87
2022/01/14 12:05:14;;;;;;;6.53;4.63;;;;;;;-145.06;0.00;60892.56;4852393;28;20073;-88
2022/01/14 12:08:02;;;;;;;8.63;4.43;;;;;;;-145.06;0.00;60892.56;4849549;28;20041;-88
2022/01/14 12:10:54;;;;;;;6.72;4.22;;;;;;;-145.06;0.00;60892.56;4848887;28;20033;-87
2022/01/14 12:13:41;;;;;;;6.35;3.83;;;;;;;-145.06;0.00;60892.56;4854251;28;20037;-88
2022/01/14 12:16:36;;;;;;;5.93;4.20;;;;;;;-145.06;0.00;60892.56;4868025;28;20129;-89
2022/01/14 12:19:17;;;;;;;7.45;3.90;;;;;;;187.52;0.00;60892.56;4864342;28;20376;-87
2022/01/14 12:21:57;;;;;;;5.88;4.03;;;;;;;9.12;0.00;60892.56;4856850;28;20384;-87
2022/01/14 12:24:37;;;;;;;6.80;4.28;;;;;;;-145.06;0.00;60892.56;4853181;28;20029;-87
2022/01/14 12:27:17;;;;;;;;;;;;;;;-145.06;0.00;60892.56;4853128;28;20037;-88
2022/01/14 12:30:02;;;;;;;;;;;;;;;-145.06;0.00;60892.56;4861806;28;20351;-87
2022/01/14 12:32:43;;;;;;;8.43;3.53;;;;;;;-145.06;0.00;60892.56;4854862;28;19913;-87
2022/01/14 12:35:27;;;;;;;8.77;4.18;;;;;;;-145.06;0.00;60892.56;4857337;28;20052;-87
2022/01/14 12:38:11;;;;;;;7.05;4.50;;;;;;;-145.06;0.00;60892.56;4857196;28;20380;-88
2022/01/14 12:40:50;;;;;;;7.88;4.18;;;;;;;-145.06;0.00;60892.56;4867929;28;20647;-89
2022/01/14 12:43:30;;;;;;;5.87;3.80;;;;;;;-145.06;0.00;60892.56;4857093;28;20033;-89
2022/01/14 12:46:15;;;;;;;6.20;3.78;;;;;;;-145.06;0.00;60892.56;4856108;28;20033;-87
2022/01/14 12:48:58;;;;;;;6.88;3.95;;;;;;;-145.06;0.00;60892.56;4851809;28;20033;-89
2022/01/14 12:51:37;;;;;;;6.50;4.03;;;;;;;-145.06;0.00;60892.56;4857160;28;20494;-86
2022/01/14 12:54:18;;;;;;;6.07;4.18;;;;;;;-145.06;0.00;60892.56;4855622;28;20033;-88
2022/01/14 12:57:01;;;;;;;6.82;4.32;;;;;;;-145.06;0.00;60892.56;4848241;28;20049;-89
2022/01/14 12:59:44;;;;;;;6.40;3.90;;;;;;;-145.06;0.00;60892.56;4880521;28;20061;-88